| time (UTC) | temp F | wind direction | speed knots | gust knots | rain 1hr in | rain 24hr in | rain mn in | humidity % | barometer mb |
| 20260509053427 | 56 | 310 | 13.0 | 20.0 | 0.00 | 0.00 | 0.00 | 12 | 1013.2 |
| 20260509052427 | 57 | 312 | 12.2 | 19.1 | 0.00 | 0.00 | 0.00 | 12 | 1013.2 |
| 20260509051427 | 57 | 313 | 13.0 | 21.7 | 0.00 | 0.00 | 0.00 | 12 | 1013.2 |
| 20260509050427 | 57 | 319 | 11.3 | 19.1 | 0.00 | 0.00 | 0.00 | 12 | 1013.2 |
| 20260509045540 | 57 | 312 | 13.9 | 20.0 | 0.00 | 0.00 | 0.00 | 12 | 1013.3 |
| 20260509045427 | 57 | 312 | 13.9 | 20.0 | 0.00 | 0.00 | 0.00 | 12 | 1013.3 |
| 20260509044429 | 57 | 319 | 12.2 | 20.0 | 0.00 | 0.00 | 0.00 | 12 | 1013.2 |
| 20260509043543 | 57 | 312 | 13.0 | 19.1 | 0.00 | 0.00 | 0.00 | 13 | 1013.2 |
| 20260509043430 | 57 | 312 | 13.0 | 19.1 | 0.00 | 0.00 | 0.00 | 13 | 1013.2 |
| 20260509042427 | 57 | 317 | 11.3 | 17.4 | 0.00 | 0.00 | 0.00 | 14 | 1013.1 |
| 20260509041544 | 57 | 320 | 13.0 | 19.1 | 0.00 | 0.00 | 0.00 | 14 | 1013.1 |
| 20260509041428 | 57 | 320 | 13.0 | 19.1 | 0.00 | 0.00 | 0.00 | 14 | 1013.1 |
| 20260509040527 | 57 | 318 | 13.0 | 19.1 | 0.00 | 0.00 | 0.00 | 14 | 1013.0 |
| 20260509040431 | 57 | 318 | 13.0 | 19.1 | 0.00 | 0.00 | 0.00 | 14 | 1013.0 |
| 20260509035519 | 57 | 320 | 11.3 | 18.2 | 0.00 | 0.00 | 0.00 | 14 | 1012.9 |
| 20260509035427 | 57 | 320 | 11.3 | 18.2 | 0.00 | 0.00 | 0.00 | 14 | 1012.9 |
| 20260509034528 | 57 | 323 | 12.2 | 19.1 | 0.00 | 0.00 | 0.00 | 14 | 1012.8 |
| 20260509034428 | 57 | 323 | 12.2 | 19.1 | 0.00 | 0.00 | 0.00 | 14 | 1012.8 |
| 20260509033518 | 57 | 314 | 13.9 | 20.0 | 0.00 | 0.00 | 0.00 | 14 | 1012.7 |
| 20260509033428 | 57 | 314 | 13.9 | 20.0 | 0.00 | 0.00 | 0.00 | 14 | 1012.7 |
| 20260509032427 | 57 | 312 | 12.2 | 18.2 | 0.00 | 0.00 | 0.00 | 13 | 1012.7 |
| 20260509031427 | 57 | 311 | 13.0 | 18.2 | 0.00 | 0.00 | 0.00 | 13 | 1012.7 |
| 20260509030526 | 56 | 311 | 12.2 | 20.9 | 0.00 | 0.00 | 0.00 | 12 | 1012.6 |
| 20260509030427 | 56 | 311 | 12.2 | 20.9 | 0.00 | 0.00 | 0.00 | 12 | 1012.6 |
| 20260509025522 | 57 | 310 | 13.0 | 19.1 | 0.00 | 0.00 | 0.00 | 12 | 1012.5 |
| 20260509025428 | 57 | 310 | 13.0 | 19.1 | 0.00 | 0.00 | 0.00 | 12 | 1012.5 |
| 20260509024516 | 56 | 314 | 11.3 | 20.0 | 0.00 | 0.00 | 0.00 | 12 | 1012.4 |
| 20260509024432 | 56 | 314 | 11.3 | 20.0 | 0.00 | 0.00 | 0.00 | 12 | 1012.4 |
| 20260509023603 | 57 | 312 | 11.3 | 18.2 | 0.00 | 0.00 | 0.00 | 12 | 1012.3 |
| 20260509023427 | 57 | 312 | 11.3 | 18.2 | 0.00 | 0.00 | 0.00 | 12 | 1012.3 |
| 20260509022510 | 57 | 306 | 12.2 | 19.1 | 0.00 | 0.00 | 0.00 | 12 | 1012.2 |
| 20260509022427 | 57 | 306 | 12.2 | 19.1 | 0.00 | 0.00 | 0.00 | 12 | 1012.2 |
| 20260509021547 | 57 | 310 | 11.3 | 19.1 | 0.00 | 0.00 | 0.00 | 12 | 1012.1 |
| 20260509021427 | 57 | 310 | 11.3 | 19.1 | 0.00 | 0.00 | 0.00 | 12 | 1012.1 |
| 20260509020427 | 57 | 309 | 12.2 | 20.9 | 0.00 | 0.00 | 0.00 | 12 | 1012.1 |
| 20260509015427 | 58 | 317 | 11.3 | 19.1 | 0.00 | 0.00 | 0.00 | 11 | 1012.0 |
| 20260509014427 | 58 | 300 | 13.0 | 22.6 | 0.00 | 0.00 | 0.00 | 11 | 1012.0 |
| 20260509013512 | 58 | 298 | 15.6 | 21.7 | 0.00 | 0.00 | 0.00 | 11 | 1011.9 |
| 20260509013427 | 58 | 298 | 15.6 | 21.7 | 0.00 | 0.00 | 0.00 | 11 | 1011.9 |
| 20260509012547 | 58 | 301 | 14.8 | 23.5 | 0.00 | 0.00 | 0.00 | 11 | 1011.9 |
| 20260509012427 | 58 | 301 | 14.8 | 23.5 | 0.00 | 0.00 | 0.00 | 11 | 1011.9 |
| 20260509011427 | 59 | 293 | 13.9 | 23.5 | 0.00 | 0.00 | 0.00 | 11 | 1011.9 |
| 20260509010515 | 59 | 298 | 13.0 | 23.5 | 0.00 | 0.00 | 0.00 | 10 | 1012.0 |
| 20260509010427 | 59 | 298 | 13.0 | 23.5 | 0.00 | 0.00 | 0.00 | 10 | 1012.0 |
| 20260509005516 | 59 | 304 | 13.0 | 22.6 | 0.00 | 0.00 | 0.00 | 10 | 1011.9 |
| 20260509005430 | 59 | 304 | 13.0 | 22.6 | 0.00 | 0.00 | 0.00 | 10 | 1011.9 |
| 20260509004427 | 60 | 298 | 11.3 | 17.4 | 0.00 | 0.00 | 0.00 | 9 | 1012.0 |
| 20260509003427 | 60 | 297 | 11.3 | 21.7 | 0.00 | 0.00 | 0.00 | 9 | 1012.0 |
| 20260509002427 | 60 | 284 | 13.9 | 21.7 | 0.00 | 0.00 | 0.00 | 9 | 1011.9 |
| 20260509001523 | 60 | 297 | 9.6 | 22.6 | 0.00 | 0.00 | 0.00 | 9 | 1012.0 |
| 20260509001427 | 60 | 297 | 9.6 | 22.6 | 0.00 | 0.00 | 0.00 | 9 | 1012.0 |
| 20260509000522 | 60 | 287 | 13.0 | 22.6 | 0.00 | 0.00 | 0.00 | 9 | 1012.1 |
| 20260509000427 | 60 | 287 | 13.0 | 22.6 | 0.00 | 0.00 | 0.00 | 9 | 1012.1 |
| 20260508235512 | 61 | 290 | 11.3 | 24.3 | 0.00 | 0.00 | 0.00 | 9 | 1011.9 |
| 20260508235430 | 61 | 290 | 11.3 | 24.3 | 0.00 | 0.00 | 0.00 | 9 | 1011.9 |
| 20260508234504 | 61 | 278 | 6.1 | 17.4 | 0.00 | 0.00 | 0.00 | 9 | 1012.2 |
| 20260508234428 | 61 | 278 | 6.1 | 17.4 | 0.00 | 0.00 | 0.00 | 9 | 1012.2 |
| 20260508233428 | 61 | 277 | 11.3 | 18.2 | 0.00 | 0.00 | 0.00 | 7 | 1012.4 |
| 20260508232512 | 61 | 280 | 11.3 | 19.1 | 0.00 | 0.00 | 0.00 | 7 | 1012.3 |
| 20260508232428 | 61 | 280 | 11.3 | 19.1 | 0.00 | 0.00 | 0.00 | 7 | 1012.3 |
| 20260508231427 | 61 | 273 | 9.6 | 17.4 | 0.00 | 0.00 | 0.00 | 9 | 1012.4 |
| 20260508230427 | 62 | 272 | 11.3 | 21.7 | 0.00 | 0.00 | 0.00 | 7 | 1012.3 |
| 20260508225538 | 61 | 281 | 9.6 | 24.3 | 0.00 | 0.00 | 0.00 | 8 | 1012.3 |
| 20260508225428 | 61 | 281 | 9.6 | 24.3 | 0.00 | 0.00 | 0.00 | 8 | 1012.3 |
| 20260508224550 | 61 | 299 | 7.0 | 19.1 | 0.00 | 0.00 | 0.00 | 9 | 1012.4 |
| 20260508224427 | 61 | 299 | 7.0 | 19.1 | 0.00 | 0.00 | 0.00 | 9 | 1012.4 |
| 20260508223430 | 61 | 289 | 9.6 | 23.5 | 0.00 | 0.00 | 0.00 | 9 | 1012.5 |
| 20260508222427 | 61 | 289 | 8.7 | 19.1 | 0.00 | 0.00 | 0.00 | 9 | 1012.4 |
| 20260508221431 | 61 | 297 | 9.6 | 20.9 | 0.00 | 0.00 | 0.00 | 8 | 1012.6 |
| 20260508220427 | 62 | 262 | 12.2 | 20.0 | 0.00 | 0.00 | 0.00 | 9 | 1012.6 |
| 20260508215430 | 62 | 243 | 5.2 | 16.5 | 0.00 | 0.00 | 0.00 | 10 | 1012.7 |
| 20260508214530 | 62 | 282 | 7.0 | 19.1 | 0.00 | 0.00 | 0.00 | 10 | 1012.8 |
| 20260508214427 | 62 | 282 | 7.0 | 19.1 | 0.00 | 0.00 | 0.00 | 10 | 1012.8 |
| 20260508213428 | 61 | 286 | 6.1 | 17.4 | 0.00 | 0.00 | 0.00 | 11 | 1013.0 |
| 20260508212427 | 61 | 285 | 9.6 | 17.4 | 0.00 | 0.00 | 0.00 | 10 | 1013.0 |
| 20260508211428 | 61 | 287 | 7.0 | 17.4 | 0.00 | 0.00 | 0.00 | 11 | 1013.0 |
| 20260508210427 | 60 | 266 | 13.9 | 20.0 | 0.00 | 0.00 | 0.00 | 10 | 1013.1 |
| 20260508205428 | 61 | 296 | 7.8 | 17.4 | 0.00 | 0.00 | 0.00 | 9 | 1013.2 |
| 20260508204500 | 61 | 280 | 6.1 | 16.5 | 0.00 | 0.00 | 0.00 | 13 | 1013.3 |
| 20260508204427 | 61 | 280 | 6.1 | 16.5 | 0.00 | 0.00 | 0.00 | 13 | 1013.3 |
| 20260508203427 | 61 | 273 | 5.2 | 13.9 | 0.00 | 0.00 | 0.00 | 11 | 1013.3 |
| 20260508202522 | 61 | 269 | 7.8 | 15.6 | 0.00 | 0.00 | 0.00 | 13 | 1013.4 |
| 20260508202427 | 61 | 269 | 7.8 | 15.6 | 0.00 | 0.00 | 0.00 | 13 | 1013.4 |
| 20260508201430 | 61 | 280 | 7.8 | 16.5 | 0.00 | 0.00 | 0.00 | 9 | 1013.4 |
| 20260508200427 | 61 | 294 | 9.6 | 18.2 | 0.00 | 0.00 | 0.00 | 10 | 1013.5 |
| 20260508195427 | 61 | 296 | 4.3 | 15.6 | 0.00 | 0.00 | 0.00 | 13 | 1013.6 |
| 20260508194505 | 60 | 289 | 6.1 | 13.9 | 0.00 | 0.00 | 0.00 | 11 | 1013.6 |
| 20260508194427 | 60 | 289 | 6.1 | 13.9 | 0.00 | 0.00 | 0.00 | 11 | 1013.6 |
| 20260508193427 | 60 | 304 | 6.1 | 11.3 | 0.00 | 0.00 | 0.00 | 13 | 1013.7 |
| 20260508192431 | 61 | 294 | 7.0 | 13.9 | 0.00 | 0.00 | 0.00 | 13 | 1013.7 |
| 20260508191427 | 62 | 318 | 3.5 | 9.6 | 0.00 | 0.00 | 0.00 | 13 | 1013.8 |
| 20260508190427 | 62 | 296 | 4.3 | 9.6 | 0.00 | 0.00 | 0.00 | 14 | 1013.8 |
| 20260508185428 | 62 | 283 | 3.5 | 7.8 | 0.00 | 0.00 | 0.00 | 16 | 1013.8 |
| 20260508184427 | 62 | 301 | 1.7 | 7.8 | 0.00 | 0.00 | 0.00 | 13 | 1014.0 |
| 20260508183427 | 62 | 249 | 0.9 | 8.7 | 0.00 | 0.00 | 0.00 | 11 | 1014.0 |
| 20260508181527 | 61 | 0 | 0.0 | 6.1 | 0.00 | 0.00 | 0.00 | 4 | 1014.1 |
| 20260508180527 | 60 | 17 | 3.5 | 11.3 | 0.00 | 0.00 | 0.00 | 4 | 1014.1 |
| 20260508175526 | 60 | 45 | 1.7 | 7.0 | 0.00 | 0.00 | 0.00 | 6 | 1014.1 |
| 20260508174526 | 59 | 101 | 2.6 | 7.0 | 0.00 | 0.00 | 0.00 | 8 | 1014.1 |
| 20260508173526 | 59 | 44 | 2.6 | 6.1 | 0.00 | 0.00 | 0.00 | 8 | 1014.1 |
| 20260508172526 | 59 | 79 | 1.7 | 7.0 | 0.00 | 0.00 | 0.00 | 11 | 1014.1 |
| 20260508171526 | 59 | 29 | 1.7 | 4.3 | 0.00 | 0.00 | 0.00 | 9 | 1014.1 |
| 20260508170527 | 58 | 98 | 1.7 | 5.2 | 0.00 | 0.00 | 0.00 | 9 | 1014.1 |
| 20260508165526 | 58 | 0 | 0.0 | 7.0 | 0.00 | 0.00 | 0.00 | 9 | 1014.0 |
| 20260508164526 | 58 | 24 | 2.6 | 7.8 | 0.00 | 0.00 | 0.00 | 7 | 1013.9 |
| 20260508163526 | 58 | 32 | 1.7 | 7.0 | 0.00 | 0.00 | 0.00 | 12 | 1013.9 |
| 20260508162528 | 57 | 26 | 2.6 | 8.7 | 0.00 | 0.00 | 0.00 | 9 | 1013.9 |
| 20260508161527 | 56 | 27 | 2.6 | 7.0 | 0.00 | 0.00 | 0.00 | 9 | 1013.8 |
| 20260508160528 | 56 | 7 | 1.7 | 5.2 | 0.00 | 0.00 | 0.00 | 10 | 1013.8 |
| 20260508155527 | 56 | 34 | 0.9 | 7.0 | 0.00 | 0.00 | 0.00 | 12 | 1013.8 |
| 20260508154527 | 55 | 49 | 1.7 | 7.0 | 0.00 | 0.00 | 0.00 | 11 | 1013.7 |
| 20260508153527 | 54 | 23 | 3.5 | 10.4 | 0.00 | 0.00 | 0.00 | 11 | 1013.7 |
| 20260508152526 | 54 | 29 | 2.6 | 13.0 | 0.00 | 0.00 | 0.00 | 13 | 1013.6 |
| 20260508151526 | 54 | 18 | 5.2 | 11.3 | 0.00 | 0.00 | 0.00 | 12 | 1013.5 |
| 20260508150527 | 53 | 1 | 5.2 | 13.0 | 0.00 | 0.00 | 0.00 | 12 | 1013.4 |
| 20260508145526 | 53 | 357 | 6.1 | 11.3 | 0.00 | 0.00 | 0.00 | 12 | 1013.5 |
| 20260508144526 | 53 | 360 | 6.1 | 14.8 | 0.00 | 0.00 | 0.00 | 12 | 1013.4 |
| 20260508143526 | 53 | 347 | 6.1 | 14.8 | 0.00 | 0.00 | 0.00 | 13 | 1013.3 |
| 20260508142526 | 53 | 336 | 5.2 | 13.0 | 0.00 | 0.00 | 0.00 | 11 | 1013.3 |
| 20260508141526 | 52 | 344 | 6.1 | 12.2 | 0.00 | 0.00 | 0.00 | 12 | 1013.2 |
| 20260508140526 | 52 | 342 | 7.0 | 14.8 | 0.00 | 0.00 | 0.00 | 11 | 1013.2 |
| 20260508135526 | 51 | 339 | 7.0 | 16.5 | 0.00 | 0.00 | 0.00 | 10 | 1013.0 |
| 20260508134526 | 51 | 338 | 7.8 | 16.5 | 0.00 | 0.00 | 0.00 | 9 | 1012.9 |
| 20260508133526 | 51 | 330 | 8.7 | 16.5 | 0.00 | 0.00 | 0.00 | 8 | 1012.9 |
| 20260508132526 | 51 | 335 | 8.7 | 14.8 | 0.00 | 0.00 | 0.00 | 8 | 1012.8 |
| 20260508131526 | 51 | 331 | 8.7 | 15.6 | 0.00 | 0.00 | 0.00 | 8 | 1012.8 |
| 20260508130531 | 51 | 329 | 9.6 | 17.4 | 0.00 | 0.00 | 0.00 | 8 | 1012.7 |
| 20260508125526 | 50 | 330 | 8.7 | 17.4 | 0.00 | 0.00 | 0.00 | 8 | 1012.6 |
| 20260508124526 | 50 | 328 | 11.3 | 17.4 | 0.00 | 0.00 | 0.00 | 9 | 1012.5 |
| 20260508123720 | 50 | 333 | 10.4 | 16.5 | 0.00 | 0.00 | 0.00 | 9 | 1012.5 |
| 20260508123526 | 50 | 333 | 10.4 | 16.5 | 0.00 | 0.00 | 0.00 | 9 | 1012.5 |
| 20260508122701 | 50 | 329 | 9.6 | 16.5 | 0.00 | 0.00 | 0.00 | 9 | 1012.4 |
| 20260508122526 | 50 | 329 | 9.6 | 16.5 | 0.00 | 0.00 | 0.00 | 9 | 1012.4 |
| 20260508121526 | 50 | 335 | 9.6 | 16.5 | 0.00 | 0.00 | 0.00 | 10 | 1012.4 |
| 20260508120527 | 50 | 330 | 8.7 | 15.6 | 0.00 | 0.00 | 0.00 | 10 | 1012.3 |
| 20260508115526 | 50 | 337 | 9.6 | 17.4 | 0.00 | 0.00 | 0.00 | 10 | 1012.3 |
| 20260508114526 | 50 | 332 | 8.7 | 16.5 | 0.00 | 0.00 | 0.00 | 12 | 1012.4 |
| 20260508113526 | 50 | 332 | 9.6 | 15.6 | 0.00 | 0.00 | 0.00 | 12 | 1012.4 |
| 20260508112526 | 50 | 335 | 8.7 | 13.9 | 0.00 | 0.00 | 0.00 | 13 | 1012.4 |
| 20260508111526 | 49 | 333 | 9.6 | 14.8 | 0.00 | 0.00 | 0.00 | 13 | 1012.4 |
| 20260508110526 | 49 | 334 | 8.7 | 14.8 | 0.00 | 0.00 | 0.00 | 15 | 1012.4 |
| 20260508105526 | 49 | 331 | 7.8 | 15.6 | 0.00 | 0.00 | 0.00 | 16 | 1012.5 |
| 20260508104526 | 49 | 336 | 7.8 | 15.6 | 0.00 | 0.00 | 0.00 | 17 | 1012.6 |
| 20260508103701 | 49 | 328 | 9.6 | 15.6 | 0.00 | 0.00 | 0.00 | 18 | 1012.6 |
| 20260508103526 | 49 | 328 | 9.6 | 15.6 | 0.00 | 0.00 | 0.00 | 18 | 1012.6 |
| 20260508102526 | 49 | 330 | 8.7 | 14.8 | 0.00 | 0.00 | 0.00 | 16 | 1012.5 |
| 20260508101526 | 49 | 328 | 8.7 | 14.8 | 0.00 | 0.00 | 0.00 | 17 | 1012.5 |
| 20260508100526 | 49 | 329 | 9.6 | 15.6 | 0.00 | 0.00 | 0.00 | 15 | 1012.4 |
| 20260508095526 | 49 | 326 | 8.7 | 15.6 | 0.00 | 0.00 | 0.00 | 13 | 1012.4 |
| 20260508094646 | 50 | 337 | 9.6 | 14.8 | 0.00 | 0.00 | 0.00 | 13 | 1012.4 |
| 20260508094526 | 50 | 337 | 9.6 | 14.8 | 0.00 | 0.00 | 0.00 | 13 | 1012.4 |
| 20260508093526 | 50 | 334 | 8.7 | 14.8 | 0.00 | 0.00 | 0.00 | 12 | 1012.4 |
| 20260508092526 | 50 | 328 | 8.7 | 13.9 | 0.00 | 0.00 | 0.00 | 13 | 1012.4 |
| 20260508091527 | 50 | 330 | 9.6 | 16.5 | 0.00 | 0.00 | 0.00 | 12 | 1012.4 |
| 20260508090526 | 50 | 330 | 8.7 | 15.6 | 0.00 | 0.00 | 0.00 | 10 | 1012.4 |
| 20260508085702 | 50 | 330 | 9.6 | 17.4 | 0.00 | 0.00 | 0.00 | 9 | 1012.5 |
| 20260508085526 | 50 | 330 | 9.6 | 17.4 | 0.00 | 0.00 | 0.00 | 9 | 1012.5 |
| 20260508084526 | 50 | 328 | 10.4 | 14.8 | 0.00 | 0.00 | 0.00 | 9 | 1012.6 |
| 20260508083529 | 50 | 329 | 10.4 | 14.8 | 0.00 | 0.00 | 0.00 | 9 | 1012.6 |
| 20260508082017 | 50 | 330 | 7.8 | 14.8 | 0.00 | 0.00 | 0.00 | 9 | 1012.7 |
| 20260508081929 | 50 | 330 | 7.8 | 14.8 | 0.00 | 0.00 | 0.00 | 9 | 1012.7 |
| 20260508080929 | 50 | 328 | 10.4 | 16.5 | 0.00 | 0.00 | 0.00 | 9 | 1012.8 |
| 20260508080015 | 50 | 314 | 9.6 | 15.6 | 0.00 | 0.00 | 0.00 | 9 | 1012.9 |
| 20260508075929 | 50 | 314 | 9.6 | 15.6 | 0.00 | 0.00 | 0.00 | 9 | 1012.9 |
| 20260508074928 | 50 | 320 | 10.4 | 17.4 | 0.00 | 0.00 | 0.00 | 9 | 1013.0 |
| 20260508074000 | 50 | 321 | 9.6 | 14.8 | 0.00 | 0.00 | 0.00 | 9 | 1013.0 |
| 20260508073928 | 50 | 321 | 9.6 | 14.8 | 0.00 | 0.00 | 0.00 | 9 | 1013.0 |
| 20260508072931 | 50 | 319 | 10.4 | 17.4 | 0.00 | 0.00 | 0.00 | 9 | 1013.1 |
| 20260508071316 | 51 | 318 | 10.4 | 18.2 | 0.00 | 0.00 | 0.00 | 9 | 1013.0 |
| 20260508071228 | 51 | 318 | 10.4 | 18.2 | 0.00 | 0.00 | 0.00 | 9 | 1013.0 |
| 20260508070229 | 51 | 332 | 10.4 | 16.5 | 0.00 | 0.00 | 0.00 | 10 | 1013.2 |
| 20260508065227 | 51 | 324 | 9.6 | 18.2 | 0.00 | 0.00 | 0.00 | 9 | 1013.2 |
| 20260508064228 | 51 | 319 | 9.6 | 17.4 | 0.00 | 0.00 | 0.00 | 10 | 1013.2 |
| 20260508063228 | 51 | 317 | 9.6 | 14.8 | 0.00 | 0.00 | 0.00 | 10 | 1013.2 |
| 20260508062227 | 51 | 317 | 10.4 | 18.2 | 0.00 | 0.00 | 0.00 | 9 | 1013.2 |
| 20260508061227 | 51 | 331 | 10.4 | 16.5 | 0.00 | 0.00 | 0.00 | 8 | 1013.2 |
| 20260508060227 | 51 | 322 | 9.6 | 15.6 | 0.00 | 0.00 | 0.00 | 8 | 1013.2 |
| 20260508055228 | 51 | 323 | 8.7 | 15.6 | 0.00 | 0.00 | 0.00 | 7 | 1013.2 |
| 20260508054328 | 51 | 329 | 8.7 | 13.9 | 0.00 | 0.00 | 0.00 | 7 | 1013.2 |
| 20260508054229 | 51 | 329 | 8.7 | 13.9 | 0.00 | 0.00 | 0.00 | 7 | 1013.2 |